Terminal Aerodrome Forecast
Issued by NWS Blacksburg, VA

Home | Current Version | Previous Version | Text Only | Print | Product List | Glossary On
Versions: 1 2 3 4 5 6 7 8 9 10 11 12
000
FTUS41 KRNK 222335
TAFLYH
TAF
KLYH 222335Z 2300/2324 17006KT P6SM BKN250
      TEMPO 2302/2304 -SHRA OVC140
     FM230400 17007KT P6SM OVC025
     FM230600 17008KT P6SM VCSH OVC010
     FM231100 20011KT P6SM VCSH OVC015
     FM231500 25013KT P6SM FEW040 SCT250=

USA.gov is the U.S. government's official web portal to all federal, state and local government web resources and services.